To NAV CANADA Home Page Login to a new session Search on AWWS site Feedback and Comments Disclaimer Vers la page française équivalente Tips FAQ What's new on the site To the Forecasts and Observations / NOTAM section To "File a Flight Plan" website Publications and other links Update of the User's profile FIC Telephone Numbers My Weather Data Folder Route Weather Data Regional Weather Data Local Weather Data To the Forecasts and Observations / NOTAM section
Request Generated 08/24/2016 at 19:36:07 UTC . Weather information available at that time is displayed.

METAR/TAF

COMOX/BC    

METAR CYQQ 241900Z 01007KT 20SM FEW180 FEW270 22/13 A3027 RMK AC1CI1 SLP251=
METAR CYQQ 241800Z 01005KT 20SM FEW150 FEW270 21/12 A3029 RMK AC1CI1 CONTRAILS SLP256=
METAR CYQQ 241700Z 35009KT 20SM FEW150 19/12 A3029 RMK AC1 SLP259=

TAF CYQQ 241739Z 2418/2518 35008KT P6SM SKC
RMK NXT FCST BY 250000Z=
Your time UTC time
Weather data provided by Environment Canada and NAV CANADA